Buckingham, Canada
Current Conditions -  °F | °C
As of 1:44 PM on Saturday 25 Oct 2014 (Local Time) from CYND Reporting Station
Light Rain Light Rain  
Wind Chill: 55°   Ceiling: 3000
Heat Index: 55°   Visibility: 10mi
Dew Point: 46°   Wind: 6mph
Humidity: 72%   Direction: 230°SW
Pressure: 29.54"   Gusts: NA
Location:  45.58°N, 75.42°W
Report Text: CYND 251744Z 23005KT 10SM -RA OVC030 13/08 A2954 RMK SC8 PRESFR SLP004 DENSITY ALT 400FT
Loading
Personal Weather Stations






























Interactive Weather Map
Tropical Storm Tracking
New forecast layout! Learn more

10-Day Weather Forecast

Advertisements
Track Severe Weather on mobile